Time;durP1;ratioP1;P1;durP2;ratioP2;P2;SDS_P1;SDS_P2;PMS_P1;PMS_P2;Temp;Humidity;BMP_temperature;BMP_pressure;BME280_temperature;BME280_humidity;BME280_pressure;Samples;Min_cycle;Max_cycle;Signal;HPM_P1;HPM_P2
2021/11/20 00:04:40;;;;;;;19.80;13.43;;;;;;;;;;10426214;28;20557;-87
2021/11/20 00:09:41;;;;;;;28.17;15.00;;;;;;;;;;10435119;28;20032;-87
2021/11/20 00:14:41;;;;;;;21.60;14.10;;;;;;;;;;10439964;28;20040;-88
2021/11/20 00:19:42;;;;;;;25.87;14.07;;;;;;;;;;10420207;28;20471;-87
2021/11/20 00:24:47;;;;;;;25.00;13.73;;;;;;;;;;10421021;28;20029;-85
2021/11/20 08:10:56;;;;;;;19.52;6.70;;;;;;;;;;10526665;27;20612;-86
2021/11/20 08:15:56;;;;;;;25.33;6.20;;;;;;;;;;10538690;28;20032;-84
2021/11/20 08:20:58;;;;;;;12.47;6.47;;;;;;;;;;10527463;28;20437;-84
2021/11/20 08:25:59;;;;;;;16.38;6.90;;;;;;;;;;10518851;28;20059;-85
2021/11/20 08:30:59;;;;;;;15.55;6.78;;;;;;;;;;10526836;28;20454;-84
2021/11/20 08:36:00;;;;;;;15.68;8.13;;;;;;;;;;10526128;28;20116;-82
2021/11/20 08:41:00;;;;;;;16.23;7.53;;;;;;;;;;10522344;28;20086;-82
2021/11/20 08:46:02;;;;;;;20.50;7.95;;;;;;;;;;10517262;28;20036;-82
2021/11/20 08:51:07;;;;;;;13.45;8.32;;;;;;;;;;10534017;28;20052;-83
2021/11/20 08:56:09;;;;;;;24.73;8.98;;;;;;;;;;10530618;28;20025;-86
2021/11/20 09:01:23;;;;;;;28.95;10.48;;;;;;;;;;10534524;28;20040;-83
2021/11/20 09:06:32;;;;;;;21.45;10.85;;;;;;;;;;10514827;28;20055;-87
2021/11/20 09:11:41;;;;;;;27.10;9.70;;;;;;;;;;10524684;28;20462;-86
2021/11/20 09:16:42;;;;;;;;;;;;;;;;;;10526439;28;20582;-82
2021/11/20 09:21:43;;;;;;;32.88;10.10;;;;;;;;;;10502374;27;19995;-81
2021/11/20 09:26:43;;;;;;;24.23;10.07;;;;;;;;;;10501309;28;20452;-83
2021/11/20 09:31:45;;;;;;;29.83;10.90;;;;;;;;;;10494996;28;20119;-83
2021/11/20 09:36:47;;;;;;;22.45;10.15;;;;;;;;;;10492972;28;20453;-81
2021/11/20 09:41:57;;;;;;;30.15;11.57;;;;;;;;;;10512209;28;20107;-81
2021/11/20 09:47:05;;;;;;;28.05;10.45;;;;;;;;;;10508550;28;20036;-82
2021/11/20 09:52:06;;;;;;;20.45;8.98;;;;;;;;;;10494573;28;20032;-83
2021/11/20 09:57:15;;;;;;;19.35;9.93;;;;;;;;;;10501329;28;20040;-82
2021/11/20 10:02:18;;;;;;;22.83;9.18;;;;;;;;;;10473901;28;20047;-81
2021/11/20 10:07:21;;;;;;;25.88;10.88;;;;;;;;;;10476860;28;20071;-80
2021/11/20 10:12:37;;;;;;;17.92;9.15;;;;;;;;;;10494306;28;20491;-80
2021/11/20 10:17:42;;;;;;;17.35;10.27;;;;;;;;;;10487968;28;20020;-80
2021/11/20 10:23:10;;;;;;;20.85;10.25;;;;;;;;;;10503308;28;20127;-80
2021/11/20 10:28:41;;;;;;;16.37;9.33;;;;;;;;;;10477399;28;20036;-81
2021/11/20 10:33:49;;;;;;;21.55;9.95;;;;;;;;;;10478999;28;20148;-83
2021/11/20 10:38:55;;;;;;;19.88;10.65;;;;;;;;;;10496850;28;20032;-82
2021/11/20 10:44:12;;;;;;;22.27;10.68;;;;;;;;;;10485858;28;20032;-84
2021/11/20 10:49:54;;;;;;;21.80;11.98;;;;;;;;;;10482550;28;20040;-84
2021/11/20 10:55:19;;;;;;;27.27;11.50;;;;;;;;;;10463330;28;20044;-82
2021/11/20 11:00:38;;;;;;;31.70;12.57;;;;;;;;;;10479166;28;20089;-82
2021/11/20 11:06:01;;;;;;;32.17;12.35;;;;;;;;;;10483436;28;20083;-82
2021/11/20 11:11:32;;;;;;;29.83;12.30;;;;;;;;;;10449270;28;20386;-82
2021/11/20 11:16:39;;;;;;;33.08;13.23;;;;;;;;;;10482154;28;20044;-83
2021/11/20 11:21:55;;;;;;;28.95;13.70;;;;;;;;;;10492810;28;20471;-84
2021/11/20 11:27:03;;;;;;;38.38;13.65;;;;;;;;;;10489245;28;20047;-82
2021/11/20 11:32:04;;;;;;;29.95;14.70;;;;;;;;;;10486562;28;20129;-83
2021/11/20 11:37:24;;;;;;;31.23;14.32;;;;;;;;;;10503307;28;20040;-84
2021/11/20 11:43:06;;;;;;;34.25;14.15;;;;;;;;;;10479735;28;20442;-83
2021/11/20 11:48:12;;;;;;;29.08;14.77;;;;;;;;;;10463178;28;20364;-85
2021/11/20 11:53:43;;;;;;;32.65;15.63;;;;;;;;;;10494871;28;20351;-85
2021/11/20 11:59:16;;;;;;;32.50;14.75;;;;;;;;;;10468744;28;20352;-86
2021/11/20 12:04:40;;;;;;;31.88;15.18;;;;;;;;;;10483891;28;20032;-84
2021/11/20 12:09:50;;;;;;;28.33;15.23;;;;;;;;;;10483305;28;20127;-85
2021/11/20 12:14:50;;;;;;;26.48;14.15;;;;;;;;;;10483764;28;20028;-84
2021/11/20 12:20:12;;;;;;;31.13;15.23;;;;;;;;;;10489098;28;20494;-87
2021/11/20 12:25:13;;;;;;;40.40;16.58;;;;;;;;;;10470917;28;20051;-85
2021/11/20 12:35:43;;;;;;;28.70;15.90;;;;;;;;;;11895889;22;20065;-93
2021/11/20 12:41:14;;;;;;;36.03;16.65;;;;;;;;;;10388184;28;20041;-93
2021/11/20 12:46:23;;;;;;;30.05;16.23;;;;;;;;;;10396356;28;20040;-94
2021/11/20 12:51:52;;;;;;;34.65;16.73;;;;;;;;;;10382834;28;20467;-92
2021/11/20 12:57:40;;;;;;;32.10;16.40;;;;;;;;;;10416775;28;20045;-93
2021/11/20 13:02:53;;;;;;;32.50;16.37;;;;;;;;;;10380392;28;20397;-93
2021/11/20 13:07:57;;;;;;;32.70;16.75;;;;;;;;;;10395847;28;20025;-93
2021/11/20 13:13:23;;;;;;;33.85;16.58;;;;;;;;;;10402138;28;20111;-85
2021/11/20 13:18:34;;;;;;;33.13;16.52;;;;;;;;;;10417680;28;20033;-86
2021/11/20 13:23:36;;;;;;;30.92;16.63;;;;;;;;;;10408518;28;20482;-87
2021/11/20 13:28:42;;;;;;;33.60;17.15;;;;;;;;;;10419360;28;20409;-85
2021/11/20 13:33:46;;;;;;;36.10;17.10;;;;;;;;;;10410656;28;20033;-86
2021/11/20 13:38:47;;;;;;;34.70;17.27;;;;;;;;;;10401121;28;20234;-86
2021/11/20 13:43:49;;;;;;;34.60;18.57;;;;;;;;;;10411675;28;20037;-86
2021/11/20 13:48:54;;;;;;;32.17;17.90;;;;;;;;;;10396107;28;20512;-84
2021/11/20 13:54:03;;;;;;;33.67;17.33;;;;;;;;;;10418985;28;20044;-84
2021/11/20 13:59:06;;;;;;;38.17;18.33;;;;;;;;;;10418195;28;20025;-83
2021/11/20 14:04:07;;;;;;;34.47;18.00;;;;;;;;;;10414449;28;20030;-84
2021/11/20 14:09:12;;;;;;;31.20;17.10;;;;;;;;;;10376998;28;20462;-84
2021/11/20 14:14:20;;;;;;;31.35;17.27;;;;;;;;;;10406743;28;20439;-85
2021/11/20 14:19:28;;;;;;;;;;;;;;;;;;10401378;28;20026;-84
2021/11/20 14:24:34;;;;;;;31.10;17.92;;;;;;;;;;10418456;28;19920;-84
2021/11/20 14:29:37;;;;;;;30.30;15.82;;;;;;;;;;10400060;28;20044;-85
2021/11/20 14:34:41;;;;;;;32.45;17.85;;;;;;;;;;10417399;28;20057;-85
2021/11/20 14:39:48;;;;;;;28.83;15.77;;;;;;;;;;10400310;28;20032;-88
2021/11/20 14:44:49;;;;;;;26.25;16.40;;;;;;;;;;10411299;28;20030;-83
2021/11/20 14:49:54;;;;;;;28.05;16.95;;;;;;;;;;10396163;28;20041;-83
2021/11/20 14:55:01;;;;;;;25.42;15.55;;;;;;;;;;10383794;28;20498;-83
2021/11/20 15:00:06;;;;;;;24.90;15.20;;;;;;;;;;10382382;28;20034;-86
2021/11/20 15:05:07;;;;;;;25.88;16.45;;;;;;;;;;10372753;28;20417;-86
2021/11/20 15:10:07;;;;;;;32.10;16.40;;;;;;;;;;10408629;28;20085;-87
2021/11/20 15:15:08;;;;;;;26.05;16.13;;;;;;;;;;10407168;28;20468;-86
2021/11/20 15:20:10;;;;;;;27.58;14.90;;;;;;;;;;10399277;28;20026;-87
2021/11/20 15:25:12;;;;;;;26.70;16.27;;;;;;;;;;10407161;28;20452;-86
2021/11/20 15:30:14;;;;;;;23.48;15.18;;;;;;;;;;10386986;28;20464;-88
2021/11/20 15:35:15;;;;;;;26.90;16.05;;;;;;;;;;10404965;28;20061;-87
2021/11/20 15:40:16;;;;;;;31.83;16.60;;;;;;;;;;10399872;28;20036;-88
2021/11/20 15:45:17;;;;;;;27.23;15.13;;;;;;;;;;10387608;28;20044;-88
2021/11/20 15:50:18;;;;;;;24.50;15.93;;;;;;;;;;10388095;28;20062;-86
2021/11/20 15:55:19;;;;;;;31.10;15.75;;;;;;;;;;10397353;28;20455;-87
2021/11/20 16:00:21;;;;;;;26.17;15.73;;;;;;;;;;10442040;28;20029;-87
2021/11/20 16:05:21;;;;;;;27.50;15.88;;;;;;;;;;10414233;28;20447;-87
2021/11/20 16:10:21;;;;;;;25.57;15.87;;;;;;;;;;10412618;28;20030;-86
2021/11/20 16:15:22;;;;;;;24.95;15.82;;;;;;;;;;10392170;28;20486;-87
2021/11/20 16:20:23;;;;;;;27.33;15.90;;;;;;;;;;10363088;28;20034;-87
2021/11/20 16:25:23;;;;;;;25.48;17.38;;;;;;;;;;10392116;28;20398;-87
2021/11/20 16:30:24;;;;;;;28.77;15.73;;;;;;;;;;10405331;28;20041;-87
2021/11/20 16:35:24;;;;;;;28.02;16.65;;;;;;;;;;10396634;28;20455;-85
2021/11/20 16:40:25;;;;;;;26.83;16.67;;;;;;;;;;10415745;28;20037;-86
2021/11/20 16:45:25;;;;;;;24.10;16.13;;;;;;;;;;10396780;28;20467;-86
2021/11/20 16:55:47;;;;;;;23.85;15.50;;;;;;;;;;10427688;28;20029;-84
2021/11/20 17:00:48;;;;;;;26.67;16.40;;;;;;;;;;10432519;28;20033;-85
2021/11/20 17:05:48;;;;;;;24.88;15.43;;;;;;;;;;10415963;28;20045;-85
2021/11/20 17:10:49;;;;;;;24.93;15.50;;;;;;;;;;10430550;28;20064;-85
2021/11/20 17:15:50;;;;;;;27.65;15.90;;;;;;;;;;10401838;28;20498;-86
2021/11/20 17:20:50;;;;;;;26.08;16.48;;;;;;;;;;10419833;28;20490;-88
2021/11/20 17:25:51;;;;;;;23.20;15.60;;;;;;;;;;10421378;28;20021;-87
2021/11/20 17:30:52;;;;;;;28.73;16.60;;;;;;;;;;10420064;28;20124;-87
2021/11/20 17:35:53;;;;;;;25.92;16.30;;;;;;;;;;10417928;28;20499;-87
2021/11/20 17:40:53;;;;;;;23.43;14.87;;;;;;;;;;10403020;28;20068;-87
2021/11/20 17:45:54;;;;;;;26.48;15.40;;;;;;;;;;10389068;28;20428;-86
2021/11/20 17:50:57;;;;;;;26.23;15.30;;;;;;;;;;10403973;28;20034;-86
2021/11/20 17:55:57;;;;;;;24.17;14.80;;;;;;;;;;10406906;28;20487;-87
2021/11/20 18:00:58;;;;;;;20.83;14.73;;;;;;;;;;10414548;28;20030;-87
2021/11/20 18:05:59;;;;;;;25.70;15.60;;;;;;;;;;10391952;28;20488;-87
2021/11/20 18:10:59;;;;;;;25.87;15.20;;;;;;;;;;10389964;28;20025;-86
2021/11/20 18:16:00;;;;;;;24.20;15.02;;;;;;;;;;10412446;28;20439;-87
2021/11/20 18:21:01;;;;;;;26.98;15.88;;;;;;;;;;10391936;28;20143;-88
2021/11/20 18:26:02;;;;;;;26.13;15.73;;;;;;;;;;10427847;28;20470;-87
2021/11/20 18:31:03;;;;;;;24.02;16.02;;;;;;;;;;10390755;28;20060;-86
2021/11/20 18:36:03;;;;;;;24.35;16.17;;;;;;;;;;10399012;28;20099;-86
2021/11/20 18:41:04;;;;;;;23.33;15.25;;;;;;;;;;10396335;28;20021;-86
2021/11/20 18:46:04;;;;;;;22.20;14.88;;;;;;;;;;10383663;28;20037;-87
2021/11/20 18:51:06;;;;;;;24.90;15.60;;;;;;;;;;10400695;28;20037;-88
2021/11/20 18:56:06;;;;;;;27.17;15.77;;;;;;;;;;10397589;28;20143;-88
2021/11/20 19:01:07;;;;;;;29.88;16.40;;;;;;;;;;10389945;28;20057;-90
2021/11/20 19:06:09;;;;;;;25.70;16.67;;;;;;;;;;10396034;28;20037;-89
2021/11/20 19:11:10;;;;;;;25.27;17.27;;;;;;;;;;10414183;28;20037;-87
2021/11/20 19:16:11;;;;;;;26.15;17.55;;;;;;;;;;10408556;28;20352;-88
2021/11/20 19:21:12;;;;;;;27.27;17.85;;;;;;;;;;10414898;28;20478;-88
2021/11/20 19:26:13;;;;;;;26.55;17.10;;;;;;;;;;10414042;28;20037;-90
2021/11/20 19:31:14;;;;;;;39.80;16.25;;;;;;;;;;10411199;28;20387;-86
2021/11/20 19:36:17;;;;;;;35.40;18.45;;;;;;;;;;10412001;28;20053;-86
2021/11/20 19:41:18;;;;;;;33.72;17.17;;;;;;;;;;10399845;28;20569;-86
2021/11/20 19:46:19;;;;;;;29.02;16.73;;;;;;;;;;10401799;28;20040;-86
2021/11/20 19:51:19;;;;;;;31.77;15.95;;;;;;;;;;10408068;28;20104;-85
2021/11/20 19:56:20;;;;;;;32.33;17.17;;;;;;;;;;10400538;28;20025;-85
2021/11/20 20:01:21;;;;;;;30.17;16.27;;;;;;;;;;10412057;28;20469;-85
2021/11/20 20:06:22;;;;;;;27.50;16.00;;;;;;;;;;10411140;28;20029;-85
2021/11/20 20:11:23;;;;;;;19.70;14.48;;;;;;;;;;10410592;28;20108;-84
2021/11/20 20:16:28;;;;;;;23.17;15.07;;;;;;;;;;10420496;28;20036;-84
2021/11/20 20:21:29;;;;;;;29.40;15.93;;;;;;;;;;10409279;28;20038;-84
2021/11/20 20:26:31;;;;;;;24.50;15.63;;;;;;;;;;10412978;28;20410;-84
2021/11/20 20:31:33;;;;;;;26.58;15.57;;;;;;;;;;10396253;28;20491;-84
2021/11/20 20:36:36;;;;;;;23.88;14.60;;;;;;;;;;10386102;28;20476;-86
2021/11/20 20:41:38;;;;;;;23.98;15.00;;;;;;;;;;10399179;28;20445;-86
2021/11/20 20:46:39;;;;;;;26.58;14.07;;;;;;;;;;10393195;28;20029;-87
2021/11/20 20:51:39;;;;;;;21.92;13.75;;;;;;;;;;10413618;28;20950;-86
2021/11/20 20:56:40;;;;;;;25.63;14.35;;;;;;;;;;10415346;28;20037;-87
2021/11/20 21:01:41;;;;;;;21.52;13.82;;;;;;;;;;10411836;28;20064;-86
2021/11/20 21:06:44;;;;;;;24.13;13.25;;;;;;;;;;10406887;28;20049;-86
2021/11/20 21:11:44;;;;;;;20.52;13.77;;;;;;;;;;10410559;28;20029;-86
2021/11/20 21:16:46;;;;;;;20.23;13.90;;;;;;;;;;10416635;28;20033;-88
2021/11/20 21:27:08;;;;;;;21.42;12.90;;;;;;;;;;10411275;28;20037;-86
2021/11/20 21:32:14;;;;;;;21.98;12.52;;;;;;;;;;10400294;28;20124;-88
2021/11/20 21:37:15;;;;;;;20.85;12.48;;;;;;;;;;10383296;28;20137;-88
2021/11/20 21:42:18;;;;;;;20.50;12.55;;;;;;;;;;10406402;28;20427;-87
2021/11/20 21:47:20;;;;;;;20.73;11.73;;;;;;;;;;10379541;28;20049;-89
2021/11/20 21:52:23;;;;;;;21.40;12.45;;;;;;;;;;10391231;28;20029;-90
2021/11/20 21:57:25;;;;;;;18.77;12.20;;;;;;;;;;10409637;28;20030;-89
2021/11/20 22:02:26;;;;;;;22.10;12.82;;;;;;;;;;10394218;28;20501;-89
2021/11/20 22:07:26;;;;;;;19.73;12.52;;;;;;;;;;10401818;28;20135;-90
2021/11/20 22:12:27;;;;;;;18.25;11.75;;;;;;;;;;10393547;28;20025;-90
2021/11/20 22:17:28;;;;;;;20.30;11.27;;;;;;;;;;10417448;28;20090;-87
2021/11/20 22:22:28;;;;;;;21.55;11.52;;;;;;;;;;10416354;28;20037;-87
2021/11/20 22:27:29;;;;;;;16.67;10.30;;;;;;;;;;10421122;28;20053;-86
2021/11/20 22:32:29;;;;;;;14.18;10.40;;;;;;;;;;10391260;28;20026;-86
2021/11/20 22:37:30;;;;;;;22.27;10.45;;;;;;;;;;10414431;28;20045;-86
2021/11/20 22:42:30;;;;;;;19.97;10.73;;;;;;;;;;10415631;28;20091;-86
2021/11/20 22:47:31;;;;;;;17.65;10.70;;;;;;;;;;10399375;28;20581;-87
2021/11/20 22:52:31;;;;;;;14.88;9.90;;;;;;;;;;10398814;28;20032;-88
2021/11/20 22:57:32;;;;;;;15.57;9.65;;;;;;;;;;10382011;28;20120;-88
2021/11/20 23:02:32;;;;;;;21.25;9.93;;;;;;;;;;10395148;28;20040;-88
2021/11/20 23:07:32;;;;;;;17.60;9.63;;;;;;;;;;10392818;28;20071;-87
2021/11/20 23:12:33;;;;;;;12.17;9.43;;;;;;;;;;10413050;28;20558;-84
2021/11/20 23:17:33;;;;;;;12.27;9.03;;;;;;;;;;10409994;28;20463;-85
2021/11/20 23:22:34;;;;;;;15.63;10.47;;;;;;;;;;10421109;28;20987;-85
2021/11/20 23:27:34;;;;;;;16.13;10.13;;;;;;;;;;10401585;28;20092;-84
2021/11/20 23:32:35;;;;;;;26.23;10.60;;;;;;;;;;10401059;28;20128;-87
2021/11/20 23:37:36;;;;;;;20.20;10.23;;;;;;;;;;10428076;28;20859;-87
2021/11/20 23:42:36;;;;;;;19.67;9.52;;;;;;;;;;10411031;28;20037;-87
2021/11/20 23:47:37;;;;;;;13.93;9.57;;;;;;;;;;10406360;28;20037;-87
2021/11/20 23:52:37;;;;;;;14.57;9.50;;;;;;;;;;10418639;28;20191;-87
2021/11/20 23:57:37;;;;;;;14.03;8.90;;;;;;;;;;10402793;28;20924;-87
